sensor_id;sensor_type;location;lat;lon;timestamp;P1;durP1;ratioP1;P2;durP2;ratioP2
46363;SDS011;32071;49.036;9.344;2023-03-23T00:01:51;3.90;;;2.73;;
46363;SDS011;32071;49.036;9.344;2023-03-23T00:04:17;2.67;;;2.30;;
46363;SDS011;32071;49.036;9.344;2023-03-23T00:06:42;2.23;;;2.00;;
46363;SDS011;32071;49.036;9.344;2023-03-23T00:09:10;2.70;;;1.97;;
46363;SDS011;32071;49.036;9.344;2023-03-23T00:11:40;2.23;;;2.03;;
46363;SDS011;32071;49.036;9.344;2023-03-23T00:14:07;2.20;;;2.00;;
46363;SDS011;32071;49.036;9.344;2023-03-23T00:16:38;2.60;;;2.30;;
46363;SDS011;32071;49.036;9.344;2023-03-23T00:19:10;3.43;;;2.00;;
46363;SDS011;32071;49.036;9.344;2023-03-23T00:21:38;3.17;;;1.77;;
46363;SDS011;32071;49.036;9.344;2023-03-23T00:26:32;3.50;;;1.87;;
46363;SDS011;32071;49.036;9.344;2023-03-23T00:28:59;3.87;;;2.20;;
46363;SDS011;32071;49.036;9.344;2023-03-23T00:31:26;2.60;;;2.40;;
46363;SDS011;32071;49.036;9.344;2023-03-23T00:33:56;2.70;;;2.00;;
46363;SDS011;32071;49.036;9.344;2023-03-23T00:36:23;2.10;;;1.90;;
46363;SDS011;32071;49.036;9.344;2023-03-23T00:38:49;1.77;;;1.67;;
46363;SDS011;32071;49.036;9.344;2023-03-23T00:41:15;1.60;;;1.50;;
46363;SDS011;32071;49.036;9.344;2023-03-23T00:43:40;2.00;;;1.80;;
46363;SDS011;32071;49.036;9.344;2023-03-23T00:46:06;2.23;;;1.83;;
46363;SDS011;32071;49.036;9.344;2023-03-23T00:48:35;1.60;;;1.50;;
46363;SDS011;32071;49.036;9.344;2023-03-23T00:51:05;2.27;;;1.57;;
46363;SDS011;32071;49.036;9.344;2023-03-23T00:53:36;2.13;;;1.90;;
46363;SDS011;32071;49.036;9.344;2023-03-23T00:56:02;2.40;;;2.20;;
46363;SDS011;32071;49.036;9.344;2023-03-23T00:58:27;3.93;;;1.80;;
46363;SDS011;32071;49.036;9.344;2023-03-23T01:00:53;1.77;;;1.60;;
46363;SDS011;32071;49.036;9.344;2023-03-23T01:03:19;1.80;;;1.67;;
46363;SDS011;32071;49.036;9.344;2023-03-23T01:05:45;4.73;;;2.33;;
46363;SDS011;32071;49.036;9.344;2023-03-23T01:08:16;1.70;;;1.60;;
46363;SDS011;32071;49.036;9.344;2023-03-23T01:10:43;3.23;;;1.87;;
46363;SDS011;32071;49.036;9.344;2023-03-23T01:13:09;1.83;;;1.70;;
46363;SDS011;32071;49.036;9.344;2023-03-23T01:15:35;2.20;;;1.90;;
46363;SDS011;32071;49.036;9.344;2023-03-23T01:18:01;2.73;;;2.13;;
46363;SDS011;32071;49.036;9.344;2023-03-23T01:20:27;2.50;;;2.23;;
46363;SDS011;32071;49.036;9.344;2023-03-23T01:22:56;2.00;;;1.80;;
46363;SDS011;32071;49.036;9.344;2023-03-23T01:25:28;2.40;;;1.87;;
46363;SDS011;32071;49.036;9.344;2023-03-23T01:27:55;2.30;;;2.10;;
46363;SDS011;32071;49.036;9.344;2023-03-23T01:30:20;2.87;;;1.60;;
46363;SDS011;32071;49.036;9.344;2023-03-23T01:32:46;1.97;;;1.87;;
46363;SDS011;32071;49.036;9.344;2023-03-23T01:35:12;2.30;;;2.10;;
46363;SDS011;32071;49.036;9.344;2023-03-23T01:37:38;1.80;;;1.60;;
46363;SDS011;32071;49.036;9.344;2023-03-23T01:40:04;1.90;;;1.80;;
46363;SDS011;32071;49.036;9.344;2023-03-23T01:42:31;2.20;;;2.00;;
46363;SDS011;32071;49.036;9.344;2023-03-23T01:45:17;2.63;;;1.70;;
46363;SDS011;32071;49.036;9.344;2023-03-23T01:48:07;2.40;;;2.20;;
46363;SDS011;32071;49.036;9.344;2023-03-23T01:50:37;2.70;;;2.50;;
46363;SDS011;32071;49.036;9.344;2023-03-23T01:53:26;2.40;;;2.20;;
46363;SDS011;32071;49.036;9.344;2023-03-23T01:56:06;2.00;;;1.80;;
46363;SDS011;32071;49.036;9.344;2023-03-23T01:58:33;2.30;;;2.10;;
46363;SDS011;32071;49.036;9.344;2023-03-23T02:01:03;3.00;;;2.43;;
46363;SDS011;32071;49.036;9.344;2023-03-23T02:03:32;2.40;;;2.17;;
46363;SDS011;32071;49.036;9.344;2023-03-23T02:06:01;2.23;;;2.07;;
46363;SDS011;32071;49.036;9.344;2023-03-23T02:08:27;2.97;;;2.30;;
46363;SDS011;32071;49.036;9.344;2023-03-23T02:10:54;2.47;;;2.27;;
46363;SDS011;32071;49.036;9.344;2023-03-23T02:13:20;3.47;;;2.00;;
46363;SDS011;32071;49.036;9.344;2023-03-23T02:15:55;2.70;;;1.90;;
46363;SDS011;32071;49.036;9.344;2023-03-23T02:31:44;2.30;;;2.10;;
46363;SDS011;32071;49.036;9.344;2023-03-23T02:37:03;2.30;;;1.80;;
46363;SDS011;32071;49.036;9.344;2023-03-23T02:39:43;2.00;;;1.73;;
46363;SDS011;32071;49.036;9.344;2023-03-23T02:42:41;1.97;;;1.80;;
46363;SDS011;32071;49.036;9.344;2023-03-23T02:45:10;2.67;;;2.13;;
46363;SDS011;32071;49.036;9.344;2023-03-23T02:47:38;3.10;;;2.23;;
46363;SDS011;32071;49.036;9.344;2023-03-23T02:50:06;2.20;;;2.00;;
46363;SDS011;32071;49.036;9.344;2023-03-23T02:52:35;2.80;;;2.60;;
46363;SDS011;32071;49.036;9.344;2023-03-23T02:55:03;2.30;;;2.10;;
46363;SDS011;32071;49.036;9.344;2023-03-23T02:57:29;2.10;;;1.90;;
46363;SDS011;32071;49.036;9.344;2023-03-23T02:59:55;2.53;;;2.20;;
46363;SDS011;32071;49.036;9.344;2023-03-23T03:04:58;2.03;;;1.83;;
46363;SDS011;32071;49.036;9.344;2023-03-23T03:07:49;2.13;;;1.93;;
46363;SDS011;32071;49.036;9.344;2023-03-23T03:10:35;2.63;;;2.27;;
46363;SDS011;32071;49.036;9.344;2023-03-23T03:15:53;2.50;;;2.17;;
46363;SDS011;32071;49.036;9.344;2023-03-23T03:18:28;3.03;;;2.63;;
46363;SDS011;32071;49.036;9.344;2023-03-23T03:21:03;2.20;;;2.00;;
46363;SDS011;32071;49.036;9.344;2023-03-23T03:23:32;2.23;;;2.03;;
46363;SDS011;32071;49.036;9.344;2023-03-23T03:26:00;2.00;;;1.90;;
46363;SDS011;32071;49.036;9.344;2023-03-23T03:28:29;2.50;;;2.30;;
46363;SDS011;32071;49.036;9.344;2023-03-23T03:30:57;2.07;;;1.90;;
46363;SDS011;32071;49.036;9.344;2023-03-23T03:33:27;3.80;;;2.30;;
46363;SDS011;32071;49.036;9.344;2023-03-23T03:35:56;3.87;;;2.37;;
46363;SDS011;32071;49.036;9.344;2023-03-23T03:38:23;2.30;;;2.10;;
46363;SDS011;32071;49.036;9.344;2023-03-23T03:40:50;3.63;;;2.40;;
46363;SDS011;32071;49.036;9.344;2023-03-23T03:43:16;2.83;;;2.57;;
46363;SDS011;32071;49.036;9.344;2023-03-23T03:45:42;4.23;;;2.40;;
46363;SDS011;32071;49.036;9.344;2023-03-23T03:48:09;3.03;;;2.10;;
46363;SDS011;32071;49.036;9.344;2023-03-23T03:50:35;2.90;;;2.30;;
46363;SDS011;32071;49.036;9.344;2023-03-23T03:53:01;2.50;;;2.30;;
46363;SDS011;32071;49.036;9.344;2023-03-23T03:55:26;3.63;;;2.47;;
46363;SDS011;32071;49.036;9.344;2023-03-23T03:57:53;3.30;;;2.53;;
46363;SDS011;32071;49.036;9.344;2023-03-23T04:00:20;2.67;;;2.30;;
46363;SDS011;32071;49.036;9.344;2023-03-23T04:02:48;2.20;;;2.00;;
46363;SDS011;32071;49.036;9.344;2023-03-23T04:05:19;2.47;;;2.17;;
46363;SDS011;32071;49.036;9.344;2023-03-23T04:07:46;4.70;;;2.30;;
46363;SDS011;32071;49.036;9.344;2023-03-23T04:10:14;3.60;;;2.40;;
46363;SDS011;32071;49.036;9.344;2023-03-23T04:12:39;3.67;;;2.50;;
46363;SDS011;32071;49.036;9.344;2023-03-23T04:15:06;3.30;;;2.30;;
46363;SDS011;32071;49.036;9.344;2023-03-23T04:17:32;2.03;;;1.93;;
46363;SDS011;32071;49.036;9.344;2023-03-23T04:19:58;2.57;;;2.03;;
46363;SDS011;32071;49.036;9.344;2023-03-23T04:22:25;2.63;;;2.17;;
46363;SDS011;32071;49.036;9.344;2023-03-23T04:24:59;2.60;;;2.30;;
46363;SDS011;32071;49.036;9.344;2023-03-23T04:27:27;3.07;;;2.27;;
46363;SDS011;32071;49.036;9.344;2023-03-23T04:29:55;2.80;;;2.40;;
46363;SDS011;32071;49.036;9.344;2023-03-23T04:32:22;2.03;;;1.83;;
46363;SDS011;32071;49.036;9.344;2023-03-23T04:34:49;2.50;;;2.23;;
46363;SDS011;32071;49.036;9.344;2023-03-23T04:37:15;2.83;;;2.13;;
46363;SDS011;32071;49.036;9.344;2023-03-23T04:39:40;2.33;;;1.70;;
46363;SDS011;32071;49.036;9.344;2023-03-23T04:42:06;4.53;;;2.20;;
46363;SDS011;32071;49.036;9.344;2023-03-23T04:44:32;2.70;;;2.03;;
46363;SDS011;32071;49.036;9.344;2023-03-23T04:46:57;2.50;;;1.90;;
46363;SDS011;32071;49.036;9.344;2023-03-23T04:49:26;2.83;;;2.10;;
46363;SDS011;32071;49.036;9.344;2023-03-23T04:51:52;2.43;;;2.23;;
46363;SDS011;32071;49.036;9.344;2023-03-23T04:54:17;2.63;;;2.33;;
46363;SDS011;32071;49.036;9.344;2023-03-23T04:56:43;3.10;;;2.10;;
46363;SDS011;32071;49.036;9.344;2023-03-23T04:59:08;2.00;;;1.90;;
46363;SDS011;32071;49.036;9.344;2023-03-23T05:01:34;2.40;;;2.00;;
46363;SDS011;32071;49.036;9.344;2023-03-23T05:04:02;2.40;;;2.00;;
46363;SDS011;32071;49.036;9.344;2023-03-23T05:06:27;2.97;;;2.27;;
46363;SDS011;32071;49.036;9.344;2023-03-23T05:08:53;2.73;;;2.53;;
46363;SDS011;32071;49.036;9.344;2023-03-23T05:11:18;4.37;;;2.30;;
46363;SDS011;32071;49.036;9.344;2023-03-23T05:13:44;2.83;;;2.53;;
46363;SDS011;32071;49.036;9.344;2023-03-23T05:16:09;2.93;;;2.63;;
46363;SDS011;32071;49.036;9.344;2023-03-23T05:18:35;2.63;;;2.40;;
46363;SDS011;32071;49.036;9.344;2023-03-23T05:21:01;3.00;;;2.70;;
46363;SDS011;32071;49.036;9.344;2023-03-23T05:23:28;6.10;;;2.53;;
46363;SDS011;32071;49.036;9.344;2023-03-23T05:25:56;3.37;;;2.60;;
46363;SDS011;32071;49.036;9.344;2023-03-23T05:28:25;3.07;;;2.73;;
46363;SDS011;32071;49.036;9.344;2023-03-23T05:30:51;3.67;;;3.00;;
46363;SDS011;32071;49.036;9.344;2023-03-23T05:33:18;3.23;;;2.77;;
46363;SDS011;32071;49.036;9.344;2023-03-23T05:35:46;4.77;;;2.67;;
46363;SDS011;32071;49.036;9.344;2023-03-23T05:38:12;3.00;;;2.70;;
46363;SDS011;32071;49.036;9.344;2023-03-23T05:40:39;2.97;;;2.37;;
46363;SDS011;32071;49.036;9.344;2023-03-23T05:43:06;5.77;;;2.33;;
46363;SDS011;32071;49.036;9.344;2023-03-23T05:45:32;3.77;;;3.00;;
46363;SDS011;32071;49.036;9.344;2023-03-23T05:47:58;3.53;;;2.70;;
46363;SDS011;32071;49.036;9.344;2023-03-23T05:50:24;4.90;;;2.67;;
46363;SDS011;32071;49.036;9.344;2023-03-23T05:52:50;3.30;;;2.73;;
46363;SDS011;32071;49.036;9.344;2023-03-23T05:55:16;4.10;;;2.60;;
46363;SDS011;32071;49.036;9.344;2023-03-23T05:57:42;3.70;;;3.40;;
46363;SDS011;32071;49.036;9.344;2023-03-23T06:00:08;6.87;;;4.30;;
46363;SDS011;32071;49.036;9.344;2023-03-23T06:02:45;5.60;;;3.90;;
46363;SDS011;32071;49.036;9.344;2023-03-23T06:05:15;3.73;;;3.40;;
46363;SDS011;32071;49.036;9.344;2023-03-23T06:07:41;6.80;;;3.13;;
46363;SDS011;32071;49.036;9.344;2023-03-23T06:10:07;3.70;;;3.27;;
46363;SDS011;32071;49.036;9.344;2023-03-23T06:12:34;3.47;;;2.97;;
46363;SDS011;32071;49.036;9.344;2023-03-23T06:15:00;4.53;;;2.67;;
46363;SDS011;32071;49.036;9.344;2023-03-23T06:17:26;2.77;;;2.53;;
46363;SDS011;32071;49.036;9.344;2023-03-23T06:19:51;2.90;;;2.70;;
46363;SDS011;32071;49.036;9.344;2023-03-23T06:22:17;3.60;;;3.07;;
46363;SDS011;32071;49.036;9.344;2023-03-23T06:24:43;3.70;;;3.17;;
46363;SDS011;32071;49.036;9.344;2023-03-23T06:27:09;2.43;;;2.23;;
46363;SDS011;32071;49.036;9.344;2023-03-23T06:29:35;5.40;;;3.67;;
46363;SDS011;32071;49.036;9.344;2023-03-23T06:32:02;4.97;;;2.80;;
46363;SDS011;32071;49.036;9.344;2023-03-23T06:34:29;3.07;;;2.77;;
46363;SDS011;32071;49.036;9.344;2023-03-23T06:36:55;3.37;;;3.07;;
46363;SDS011;32071;49.036;9.344;2023-03-23T06:39:21;4.53;;;3.30;;
46363;SDS011;32071;49.036;9.344;2023-03-23T06:41:47;4.23;;;3.27;;
46363;SDS011;32071;49.036;9.344;2023-03-23T06:44:13;3.77;;;3.40;;
46363;SDS011;32071;49.036;9.344;2023-03-23T06:46:40;4.63;;;3.50;;
46363;SDS011;32071;49.036;9.344;2023-03-23T06:49:06;2.80;;;2.60;;
46363;SDS011;32071;49.036;9.344;2023-03-23T06:51:32;5.07;;;2.83;;
46363;SDS011;32071;49.036;9.344;2023-03-23T06:53:58;5.60;;;3.00;;
46363;SDS011;32071;49.036;9.344;2023-03-23T06:56:24;3.47;;;3.10;;
46363;SDS011;32071;49.036;9.344;2023-03-23T06:58:50;3.50;;;2.80;;
46363;SDS011;32071;49.036;9.344;2023-03-23T07:01:16;12.40;;;4.53;;
46363;SDS011;32071;49.036;9.344;2023-03-23T07:03:42;3.30;;;2.67;;
46363;SDS011;32071;49.036;9.344;2023-03-23T07:06:09;2.90;;;2.57;;
46363;SDS011;32071;49.036;9.344;2023-03-23T07:08:36;10.63;;;2.93;;
46363;SDS011;32071;49.036;9.344;2023-03-23T07:11:01;3.30;;;2.50;;
46363;SDS011;32071;49.036;9.344;2023-03-23T07:13:28;8.20;;;2.90;;
46363;SDS011;32071;49.036;9.344;2023-03-23T07:15:53;4.90;;;2.90;;
46363;SDS011;32071;49.036;9.344;2023-03-23T07:18:19;4.13;;;3.10;;
46363;SDS011;32071;49.036;9.344;2023-03-23T07:20:52;7.43;;;2.87;;
46363;SDS011;32071;49.036;9.344;2023-03-23T07:23:18;3.20;;;2.90;;
46363;SDS011;32071;49.036;9.344;2023-03-23T07:25:44;5.53;;;3.23;;
46363;SDS011;32071;49.036;9.344;2023-03-23T07:28:12;3.07;;;2.60;;
46363;SDS011;32071;49.036;9.344;2023-03-23T07:30:38;3.00;;;2.77;;
46363;SDS011;32071;49.036;9.344;2023-03-23T07:33:04;5.03;;;3.00;;
46363;SDS011;32071;49.036;9.344;2023-03-23T07:35:31;3.00;;;2.60;;
46363;SDS011;32071;49.036;9.344;2023-03-23T07:37:57;5.20;;;4.17;;
46363;SDS011;32071;49.036;9.344;2023-03-23T07:40:22;4.67;;;4.23;;
46363;SDS011;32071;49.036;9.344;2023-03-23T07:42:51;8.30;;;5.57;;
46363;SDS011;32071;49.036;9.344;2023-03-23T07:45:19;9.13;;;6.13;;
46363;SDS011;32071;49.036;9.344;2023-03-23T07:47:44;19.20;;;5.80;;
46363;SDS011;32071;49.036;9.344;2023-03-23T07:50:10;7.90;;;5.20;;
46363;SDS011;32071;49.036;9.344;2023-03-23T07:52:37;8.50;;;5.47;;
46363;SDS011;32071;49.036;9.344;2023-03-23T07:55:05;6.47;;;5.30;;
46363;SDS011;32071;49.036;9.344;2023-03-23T07:57:31;4.70;;;4.27;;
46363;SDS011;32071;49.036;9.344;2023-03-23T07:59:58;5.20;;;4.17;;
46363;SDS011;32071;49.036;9.344;2023-03-23T08:02:24;8.60;;;5.53;;
46363;SDS011;32071;49.036;9.344;2023-03-23T08:04:51;5.30;;;4.20;;
46363;SDS011;32071;49.036;9.344;2023-03-23T08:07:18;4.03;;;3.70;;
46363;SDS011;32071;49.036;9.344;2023-03-23T08:09:44;8.10;;;3.80;;
46363;SDS011;32071;49.036;9.344;2023-03-23T08:12:11;7.20;;;3.13;;
46363;SDS011;32071;49.036;9.344;2023-03-23T08:14:37;4.00;;;2.60;;
46363;SDS011;32071;49.036;9.344;2023-03-23T08:17:03;3.30;;;3.00;;
46363;SDS011;32071;49.036;9.344;2023-03-23T08:19:30;5.53;;;4.53;;
46363;SDS011;32071;49.036;9.344;2023-03-23T08:22:01;15.30;;;7.30;;
46363;SDS011;32071;49.036;9.344;2023-03-23T08:24:30;5.63;;;3.43;;
46363;SDS011;32071;49.036;9.344;2023-03-23T08:26:57;4.50;;;3.57;;
46363;SDS011;32071;49.036;9.344;2023-03-23T08:29:23;2.50;;;2.30;;
46363;SDS011;32071;49.036;9.344;2023-03-23T08:31:49;5.90;;;3.10;;
46363;SDS011;32071;49.036;9.344;2023-03-23T08:34:15;3.03;;;2.77;;
46363;SDS011;32071;49.036;9.344;2023-03-23T08:36:41;5.20;;;2.93;;
46363;SDS011;32071;49.036;9.344;2023-03-23T08:39:09;3.67;;;2.70;;
46363;SDS011;32071;49.036;9.344;2023-03-23T08:41:34;3.83;;;3.00;;
46363;SDS011;32071;49.036;9.344;2023-03-23T08:44:00;3.63;;;2.67;;
46363;SDS011;32071;49.036;9.344;2023-03-23T08:46:26;3.40;;;2.87;;
46363;SDS011;32071;49.036;9.344;2023-03-23T08:48:52;3.10;;;2.80;;
46363;SDS011;32071;49.036;9.344;2023-03-23T08:51:19;2.83;;;2.53;;
46363;SDS011;32071;49.036;9.344;2023-03-23T08:53:44;4.10;;;3.30;;
46363;SDS011;32071;49.036;9.344;2023-03-23T08:56:11;3.20;;;2.90;;
46363;SDS011;32071;49.036;9.344;2023-03-23T08:58:39;2.97;;;2.70;;
46363;SDS011;32071;49.036;9.344;2023-03-23T09:01:05;5.87;;;2.80;;
46363;SDS011;32071;49.036;9.344;2023-03-23T09:03:33;5.60;;;2.83;;
46363;SDS011;32071;49.036;9.344;2023-03-23T09:06:03;3.30;;;3.00;;
46363;SDS011;32071;49.036;9.344;2023-03-23T09:08:30;3.17;;;2.90;;
46363;SDS011;32071;49.036;9.344;2023-03-23T09:11:00;3.13;;;2.83;;
46363;SDS011;32071;49.036;9.344;2023-03-23T09:13:27;3.10;;;2.80;;
46363;SDS011;32071;49.036;9.344;2023-03-23T09:15:53;3.40;;;3.10;;
46363;SDS011;32071;49.036;9.344;2023-03-23T09:18:19;3.97;;;3.07;;
46363;SDS011;32071;49.036;9.344;2023-03-23T09:20:45;4.47;;;3.17;;
46363;SDS011;32071;49.036;9.344;2023-03-23T09:23:12;3.17;;;2.87;;
46363;SDS011;32071;49.036;9.344;2023-03-23T09:25:38;2.60;;;2.40;;
46363;SDS011;32071;49.036;9.344;2023-03-23T09:28:04;3.10;;;2.70;;
46363;SDS011;32071;49.036;9.344;2023-03-23T09:30:32;7.83;;;2.97;;
46363;SDS011;32071;49.036;9.344;2023-03-23T09:33:00;3.97;;;2.60;;
46363;SDS011;32071;49.036;9.344;2023-03-23T09:35:27;11.50;;;2.73;;
46363;SDS011;32071;49.036;9.344;2023-03-23T09:37:53;3.33;;;2.50;;
46363;SDS011;32071;49.036;9.344;2023-03-23T09:40:20;2.70;;;2.50;;
46363;SDS011;32071;49.036;9.344;2023-03-23T09:45:43;5.13;;;2.73;;
46363;SDS011;32071;49.036;9.344;2023-03-23T09:51:04;2.63;;;2.43;;
46363;SDS011;32071;49.036;9.344;2023-03-23T09:53:40;2.27;;;2.07;;
46363;SDS011;32071;49.036;9.344;2023-03-23T09:56:12;3.00;;;2.20;;
46363;SDS011;32071;49.036;9.344;2023-03-23T09:58:43;2.93;;;1.80;;
46363;SDS011;32071;49.036;9.344;2023-03-23T10:04:05;1.80;;;1.70;;
46363;SDS011;32071;49.036;9.344;2023-03-23T10:06:37;3.60;;;1.93;;
46363;SDS011;32071;49.036;9.344;2023-03-23T10:09:04;1.83;;;1.40;;
46363;SDS011;32071;49.036;9.344;2023-03-23T10:17:13;1.73;;;1.63;;
46363;SDS011;32071;49.036;9.344;2023-03-23T10:20:09;2.27;;;1.87;;
46363;SDS011;32071;49.036;9.344;2023-03-23T10:22:41;2.07;;;1.90;;
46363;SDS011;32071;49.036;9.344;2023-03-23T10:27:52;4.07;;;1.90;;
46363;SDS011;32071;49.036;9.344;2023-03-23T10:30:33;2.70;;;1.57;;
46363;SDS011;32071;49.036;9.344;2023-03-23T10:33:04;1.97;;;1.80;;
46363;SDS011;32071;49.036;9.344;2023-03-23T10:35:56;2.00;;;1.80;;
46363;SDS011;32071;49.036;9.344;2023-03-23T10:38:45;2.10;;;1.90;;
46363;SDS011;32071;49.036;9.344;2023-03-23T10:41:18;2.10;;;1.93;;
46363;SDS011;32071;49.036;9.344;2023-03-23T10:43:45;4.00;;;2.47;;
46363;SDS011;32071;49.036;9.344;2023-03-23T10:46:33;2.10;;;1.90;;
46363;SDS011;32071;49.036;9.344;2023-03-23T10:49:13;1.70;;;1.50;;
46363;SDS011;32071;49.036;9.344;2023-03-23T10:51:44;3.73;;;2.23;;
46363;SDS011;32071;49.036;9.344;2023-03-23T10:54:25;2.90;;;1.97;;
46363;SDS011;32071;49.036;9.344;2023-03-23T10:56:57;3.80;;;1.70;;
46363;SDS011;32071;49.036;9.344;2023-03-23T10:59:29;2.30;;;1.87;;
46363;SDS011;32071;49.036;9.344;2023-03-23T11:02:00;1.70;;;1.60;;
46363;SDS011;32071;49.036;9.344;2023-03-23T11:04:28;2.57;;;1.83;;
46363;SDS011;32071;49.036;9.344;2023-03-23T11:06:58;1.77;;;1.47;;
46363;SDS011;32071;49.036;9.344;2023-03-23T11:09:34;3.17;;;2.00;;
46363;SDS011;32071;49.036;9.344;2023-03-23T11:12:01;1.77;;;1.60;;
46363;SDS011;32071;49.036;9.344;2023-03-23T11:14:28;1.93;;;1.67;;
46363;SDS011;32071;49.036;9.344;2023-03-23T11:17:03;3.27;;;1.80;;
46363;SDS011;32071;49.036;9.344;2023-03-23T11:19:32;1.67;;;1.57;;
46363;SDS011;32071;49.036;9.344;2023-03-23T11:22:08;1.77;;;1.67;;
46363;SDS011;32071;49.036;9.344;2023-03-23T11:24:43;1.93;;;1.73;;
46363;SDS011;32071;49.036;9.344;2023-03-23T11:27:11;1.53;;;1.43;;
46363;SDS011;32071;49.036;9.344;2023-03-23T11:29:47;1.97;;;1.77;;
46363;SDS011;32071;49.036;9.344;2023-03-23T11:32:29;1.77;;;1.67;;
46363;SDS011;32071;49.036;9.344;2023-03-23T11:34:59;5.10;;;2.13;;
46363;SDS011;32071;49.036;9.344;2023-03-23T11:39:57;4.47;;;2.10;;
46363;SDS011;32071;49.036;9.344;2023-03-23T11:56:29;2.47;;;2.27;;
46363;SDS011;32071;49.036;9.344;2023-03-23T11:58:58;4.47;;;2.10;;
46363;SDS011;32071;49.036;9.344;2023-03-23T12:07:22;3.23;;;2.40;;
46363;SDS011;32071;49.036;9.344;2023-03-23T12:10:22;2.67;;;2.07;;
46363;SDS011;32071;49.036;9.344;2023-03-23T12:18:15;2.30;;;2.10;;
46363;SDS011;32071;49.036;9.344;2023-03-23T12:23:25;2.67;;;2.47;;
46363;SDS011;32071;49.036;9.344;2023-03-23T12:29:01;2.50;;;2.30;;
46363;SDS011;32071;49.036;9.344;2023-03-23T12:32:13;2.90;;;2.50;;
46363;SDS011;32071;49.036;9.344;2023-03-23T12:43:05;3.63;;;2.37;;
46363;SDS011;32071;49.036;9.344;2023-03-23T12:48:29;4.60;;;3.20;;
46363;SDS011;32071;49.036;9.344;2023-03-23T12:51:42;4.53;;;2.40;;
46363;SDS011;32071;49.036;9.344;2023-03-23T12:53:56;2.60;;;2.40;;
46363;SDS011;32071;49.036;9.344;2023-03-23T12:59:19;4.53;;;3.10;;
46363;SDS011;32071;49.036;9.344;2023-03-23T13:02:16;5.03;;;2.93;;
46363;SDS011;32071;49.036;9.344;2023-03-23T13:05:03;4.10;;;2.87;;
46363;SDS011;32071;49.036;9.344;2023-03-23T13:07:55;3.57;;;3.00;;
46363;SDS011;32071;49.036;9.344;2023-03-23T13:10:22;4.60;;;3.37;;
46363;SDS011;32071;49.036;9.344;2023-03-23T13:13:39;7.67;;;4.10;;
46363;SDS011;32071;49.036;9.344;2023-03-23T13:16:27;5.43;;;3.57;;
46363;SDS011;32071;49.036;9.344;2023-03-23T13:19:06;3.30;;;2.87;;
46363;SDS011;32071;49.036;9.344;2023-03-23T13:21:59;7.40;;;3.10;;
46363;SDS011;32071;49.036;9.344;2023-03-23T13:24:37;2.70;;;2.47;;
46363;SDS011;32071;49.036;9.344;2023-03-23T13:27:14;2.70;;;2.50;;
46363;SDS011;32071;49.036;9.344;2023-03-23T13:29:44;4.83;;;3.23;;
46363;SDS011;32071;49.036;9.344;2023-03-23T13:32:12;5.70;;;3.03;;
46363;SDS011;32071;49.036;9.344;2023-03-23T13:34:41;3.73;;;2.83;;
46363;SDS011;32071;49.036;9.344;2023-03-23T13:37:19;2.70;;;2.50;;
46363;SDS011;32071;49.036;9.344;2023-03-23T13:39:55;5.47;;;2.67;;
46363;SDS011;32071;49.036;9.344;2023-03-23T13:42:30;2.80;;;2.60;;
46363;SDS011;32071;49.036;9.344;2023-03-23T13:45:19;3.10;;;2.80;;
46363;SDS011;32071;49.036;9.344;2023-03-23T13:47:47;3.33;;;2.90;;
46363;SDS011;32071;49.036;9.344;2023-03-23T13:57:58;3.70;;;2.90;;
46363;SDS011;32071;49.036;9.344;2023-03-23T14:03:01;3.30;;;3.00;;
46363;SDS011;32071;49.036;9.344;2023-03-23T14:05:44;3.63;;;3.00;;
46363;SDS011;32071;49.036;9.344;2023-03-23T14:10:55;4.13;;;2.83;;
46363;SDS011;32071;49.036;9.344;2023-03-23T14:13:36;3.20;;;2.90;;
46363;SDS011;32071;49.036;9.344;2023-03-23T14:16:24;5.00;;;2.60;;
46363;SDS011;32071;49.036;9.344;2023-03-23T14:19:12;4.53;;;2.83;;
46363;SDS011;32071;49.036;9.344;2023-03-23T14:21:50;4.07;;;3.30;;
46363;SDS011;32071;49.036;9.344;2023-03-23T14:24:20;3.63;;;3.33;;
46363;SDS011;32071;49.036;9.344;2023-03-23T14:26:53;3.77;;;3.40;;
46363;SDS011;32071;49.036;9.344;2023-03-23T14:29:26;4.40;;;3.70;;
46363;SDS011;32071;49.036;9.344;2023-03-23T14:31:54;4.20;;;3.00;;
46363;SDS011;32071;49.036;9.344;2023-03-23T14:34:21;4.13;;;3.60;;
46363;SDS011;32071;49.036;9.344;2023-03-23T14:36:50;4.13;;;3.63;;
46363;SDS011;32071;49.036;9.344;2023-03-23T14:39:19;3.20;;;2.90;;
46363;SDS011;32071;49.036;9.344;2023-03-23T14:41:48;4.20;;;3.30;;
46363;SDS011;32071;49.036;9.344;2023-03-23T14:44:29;5.80;;;4.00;;
46363;SDS011;32071;49.036;9.344;2023-03-23T14:46:56;8.77;;;3.23;;
46363;SDS011;32071;49.036;9.344;2023-03-23T14:49:30;3.87;;;3.50;;
46363;SDS011;32071;49.036;9.344;2023-03-23T14:52:02;2.93;;;2.73;;
46363;SDS011;32071;49.036;9.344;2023-03-23T14:54:48;4.73;;;4.23;;
46363;SDS011;32071;49.036;9.344;2023-03-23T14:57:16;5.87;;;3.70;;
46363;SDS011;32071;49.036;9.344;2023-03-23T14:59:48;3.47;;;3.17;;
46363;SDS011;32071;49.036;9.344;2023-03-23T15:02:30;4.30;;;3.40;;
46363;SDS011;32071;49.036;9.344;2023-03-23T15:05:32;4.10;;;3.73;;
46363;SDS011;32071;49.036;9.344;2023-03-23T15:08:02;4.73;;;3.80;;
46363;SDS011;32071;49.036;9.344;2023-03-23T15:10:30;4.00;;;3.60;;
46363;SDS011;32071;49.036;9.344;2023-03-23T15:12:57;3.70;;;3.40;;
46363;SDS011;32071;49.036;9.344;2023-03-23T15:15:27;4.77;;;3.60;;
46363;SDS011;32071;49.036;9.344;2023-03-23T15:17:54;3.17;;;2.90;;
46363;SDS011;32071;49.036;9.344;2023-03-23T15:20:23;4.53;;;3.30;;
46363;SDS011;32071;49.036;9.344;2023-03-23T15:23:07;3.13;;;2.93;;
46363;SDS011;32071;49.036;9.344;2023-03-23T15:25:39;3.80;;;3.40;;
46363;SDS011;32071;49.036;9.344;2023-03-23T15:28:17;4.67;;;3.37;;
46363;SDS011;32071;49.036;9.344;2023-03-23T15:30:49;3.63;;;3.33;;
46363;SDS011;32071;49.036;9.344;2023-03-23T15:33:21;3.20;;;2.90;;
46363;SDS011;32071;49.036;9.344;2023-03-23T15:35:52;5.70;;;3.00;;
46363;SDS011;32071;49.036;9.344;2023-03-23T15:40:50;3.57;;;3.23;;
46363;SDS011;32071;49.036;9.344;2023-03-23T15:43:25;3.70;;;3.40;;
46363;SDS011;32071;49.036;9.344;2023-03-23T15:46:02;3.80;;;3.10;;
46363;SDS011;32071;49.036;9.344;2023-03-23T15:48:47;4.80;;;3.23;;
46363;SDS011;32071;49.036;9.344;2023-03-23T15:51:15;3.83;;;3.47;;
46363;SDS011;32071;49.036;9.344;2023-03-23T15:53:43;3.53;;;3.23;;
46363;SDS011;32071;49.036;9.344;2023-03-23T15:56:10;3.23;;;2.93;;
46363;SDS011;32071;49.036;9.344;2023-03-23T15:58:37;4.13;;;3.20;;
46363;SDS011;32071;49.036;9.344;2023-03-23T16:01:07;3.90;;;3.60;;
46363;SDS011;32071;49.036;9.344;2023-03-23T16:06:08;3.63;;;3.33;;
46363;SDS011;32071;49.036;9.344;2023-03-23T16:08:38;5.07;;;3.63;;
46363;SDS011;32071;49.036;9.344;2023-03-23T16:11:11;5.30;;;3.30;;
46363;SDS011;32071;49.036;9.344;2023-03-23T16:13:38;5.17;;;3.73;;
46363;SDS011;32071;49.036;9.344;2023-03-23T16:16:05;4.73;;;3.30;;
46363;SDS011;32071;49.036;9.344;2023-03-23T16:18:35;4.47;;;3.37;;
46363;SDS011;32071;49.036;9.344;2023-03-23T16:21:01;4.47;;;3.57;;
46363;SDS011;32071;49.036;9.344;2023-03-23T16:23:27;4.17;;;3.67;;
46363;SDS011;32071;49.036;9.344;2023-03-23T16:25:53;4.30;;;3.40;;
46363;SDS011;32071;49.036;9.344;2023-03-23T16:28:18;4.00;;;3.60;;
46363;SDS011;32071;49.036;9.344;2023-03-23T16:30:44;3.50;;;3.00;;
46363;SDS011;32071;49.036;9.344;2023-03-23T16:33:12;5.50;;;3.47;;
46363;SDS011;32071;49.036;9.344;2023-03-23T16:35:37;3.37;;;3.07;;
46363;SDS011;32071;49.036;9.344;2023-03-23T16:38:03;3.97;;;3.40;;
46363;SDS011;32071;49.036;9.344;2023-03-23T16:40:30;4.00;;;3.37;;
46363;SDS011;32071;49.036;9.344;2023-03-23T16:42:57;3.83;;;3.43;;
46363;SDS011;32071;49.036;9.344;2023-03-23T16:45:23;4.50;;;3.30;;
46363;SDS011;32071;49.036;9.344;2023-03-23T16:47:50;7.53;;;3.27;;
46363;SDS011;32071;49.036;9.344;2023-03-23T16:50:16;3.60;;;3.03;;
46363;SDS011;32071;49.036;9.344;2023-03-23T16:52:43;3.83;;;3.53;;